createdAt,value
2023-09-25T00:00:50.644Z,11.78
2023-09-25T00:06:13.224Z,11.69
2023-09-25T00:11:16.912Z,11.62
2023-09-25T00:16:21.072Z,11.52
2023-09-25T00:21:24.886Z,11.42
2023-09-25T00:26:29.089Z,11.28
2023-09-25T00:31:33.430Z,11.21
2023-09-25T00:36:37.193Z,11.22
2023-09-25T00:41:40.676Z,11.25
2023-09-25T00:46:45.523Z,11.30
2023-09-25T00:51:49.880Z,11.26
2023-09-25T00:56:53.584Z,11.27
2023-09-25T01:01:57.304Z,11.28
2023-09-25T01:07:02.305Z,11.16
2023-09-25T01:12:06.910Z,11.06
2023-09-25T01:17:10.434Z,11.07
2023-09-25T01:22:14.240Z,10.94
2023-09-25T01:27:18.132Z,10.80
2023-09-25T01:32:21.828Z,10.63
2023-09-25T01:37:25.509Z,10.59
2023-09-25T01:42:29.410Z,10.61
2023-09-25T01:47:33.178Z,10.53
2023-09-25T01:52:37.080Z,10.26
2023-09-25T01:57:40.655Z,10.06
2023-09-25T02:02:44.451Z,10.04
2023-09-25T02:07:48.156Z,10.00
2023-09-25T02:12:51.866Z,9.96
2023-09-25T02:17:55.598Z,9.96
2023-09-25T02:22:59.442Z,10.04
2023-09-25T02:28:03.234Z,10.14
2023-09-25T02:33:06.846Z,10.25
2023-09-25T02:38:10.628Z,10.33
2023-09-25T02:43:14.501Z,10.43
2023-09-25T02:48:18.177Z,10.45
2023-09-25T02:53:21.853Z,10.45
2023-09-25T02:58:25.674Z,10.29
2023-09-25T03:03:30.632Z,10.08
2023-09-25T03:08:34.261Z,9.89
2023-09-25T03:13:53.842Z,9.77
2023-09-25T03:19:57.980Z,9.58
2023-09-25T03:25:04.959Z,9.51
2023-09-25T03:30:29.425Z,9.35
2023-09-25T03:35:53.786Z,9.28
2023-09-25T03:41:20.446Z,9.24
2023-09-25T03:46:40.537Z,9.18
2023-09-25T03:52:15.105Z,9.22
2023-09-25T03:57:35.263Z,9.28
2023-09-25T04:03:20.162Z,9.33
2023-09-25T04:08:42.457Z,9.46
2023-09-25T04:14:07.918Z,9.60
2023-09-25T04:19:14.841Z,9.69
2023-09-25T04:24:19.603Z,9.77
2023-09-25T04:29:28.970Z,9.85
2023-09-25T04:34:46.015Z,9.86
2023-09-25T04:40:08.927Z,9.83
2023-09-25T04:45:18.065Z,9.85
2023-09-25T04:50:32.969Z,9.86
2023-09-25T04:55:39.423Z,9.77
2023-09-25T05:01:04.803Z,9.61
2023-09-25T05:06:17.074Z,9.67
2023-09-25T05:11:50.184Z,9.75
2023-09-25T05:17:05.974Z,9.72
2023-09-25T05:22:41.992Z,9.72
2023-09-25T05:28:15.987Z,9.78
2023-09-25T05:33:51.576Z,9.82
2023-09-25T05:39:09.768Z,9.88
2023-09-25T05:44:32.485Z,10.07
2023-09-25T05:49:44.007Z,10.20
2023-09-25T05:54:59.365Z,10.34
2023-09-25T06:00:15.736Z,10.49
2023-09-25T06:05:23.124Z,10.66
2023-09-25T06:10:47.152Z,10.82
2023-09-25T06:15:54.454Z,10.98
2023-09-25T06:21:04.591Z,11.20
2023-09-25T06:26:12.319Z,11.40
2023-09-25T06:31:18.394Z,11.64
2023-09-25T06:36:22.214Z,11.86
2023-09-25T06:41:46.644Z,12.04
2023-09-25T06:46:53.392Z,12.27
2023-09-25T06:52:10.240Z,12.41
2023-09-25T06:57:34.200Z,12.59
2023-09-25T07:02:43.413Z,12.76
2023-09-25T07:07:52.739Z,12.95
2023-09-25T07:13:02.794Z,13.17
2023-09-25T07:18:06.680Z,13.39
2023-09-25T07:23:11.575Z,13.60
2023-09-25T07:28:15.386Z,13.80
2023-09-25T07:33:19.801Z,14.02
2023-09-25T07:38:26.040Z,14.18
2023-09-25T07:48:41.135Z,14.49
2023-09-25T08:01:52.324Z,15.00
2023-09-25T08:06:56.138Z,15.16
2023-09-25T08:11:59.794Z,15.33
2023-09-25T08:17:03.870Z,15.44
2023-09-25T08:22:11.655Z,15.48
2023-09-25T08:27:15.703Z,15.59
2023-09-25T08:32:19.186Z,15.73
2023-09-25T08:37:22.885Z,15.84
2023-09-25T08:42:27.986Z,16.01
2023-09-25T08:47:36.390Z,16.16
2023-09-25T08:52:40.825Z,16.26
2023-09-25T08:57:44.970Z,16.36
2023-09-25T09:02:50.799Z,16.44
2023-09-25T09:08:01.362Z,16.54
2023-09-25T09:13:12.477Z,16.71
2023-09-25T09:18:25.648Z,16.81
2023-09-25T09:23:44.039Z,16.87
2023-09-25T09:28:48.778Z,16.97
2023-09-25T09:33:57.896Z,17.08
2023-09-25T09:39:04.884Z,17.20
2023-09-25T09:44:08.698Z,17.32
2023-09-25T09:49:14.988Z,17.42
2023-09-25T09:57:41.128Z,17.61
2023-09-25T10:02:46.276Z,17.73
2023-09-25T10:08:12.904Z,17.82
2023-09-25T10:13:31.248Z,17.97
2023-09-25T10:18:35.024Z,18.08
2023-09-25T10:23:42.677Z,18.18
2023-09-25T10:28:47.156Z,18.19
2023-09-25T10:34:06.296Z,18.26
2023-09-25T10:39:14.827Z,18.30
2023-09-25T10:44:18.489Z,18.42
2023-09-25T10:49:23.652Z,18.55
2023-09-25T10:54:27.325Z,18.66
2023-09-25T10:59:31.164Z,18.75
2023-09-25T11:04:34.728Z,18.88
2023-09-25T11:09:38.810Z,18.92
2023-09-25T11:14:42.566Z,19.03
2023-09-25T11:19:47.093Z,19.18
2023-09-25T11:24:57.591Z,19.31
2023-09-25T11:30:15.553Z,19.36
2023-09-25T11:35:20.674Z,19.40
2023-09-25T11:40:24.388Z,19.53
2023-09-25T11:45:28.541Z,19.61
2023-09-25T11:50:32.437Z,19.65
2023-09-25T11:55:36.272Z,19.73
2023-09-25T12:00:41.269Z,19.87
2023-09-25T12:05:44.840Z,19.94
2023-09-25T12:10:48.657Z,20.05
2023-09-25T12:15:52.604Z,20.13
2023-09-25T12:20:56.511Z,20.22
2023-09-25T12:26:00.855Z,20.21
2023-09-25T12:31:04.743Z,20.25
2023-09-25T12:36:08.717Z,20.24
2023-09-25T12:41:13.492Z,20.30
2023-09-25T12:46:17.685Z,20.37
2023-09-25T12:51:21.307Z,20.45
2023-09-25T12:56:25.478Z,20.33
2023-09-25T13:01:29.773Z,20.39
2023-09-25T13:06:33.492Z,20.43
2023-09-25T13:11:37.942Z,20.38
2023-09-25T13:16:41.723Z,20.42
2023-09-25T13:21:45.415Z,20.37
2023-09-25T13:26:48.791Z,20.45
2023-09-25T13:31:52.593Z,20.48
2023-09-25T13:36:55.956Z,20.51
2023-09-25T13:41:59.656Z,20.52
2023-09-25T13:47:03.491Z,20.56
2023-09-25T13:52:07.029Z,20.62
2023-09-25T13:57:14.467Z,20.62
2023-09-25T14:02:18.226Z,20.62
2023-09-25T14:07:22.791Z,20.63
2023-09-25T14:12:28.598Z,20.70
2023-09-25T14:17:32.432Z,20.80
2023-09-25T14:22:37.369Z,20.82
2023-09-25T14:27:41.212Z,20.77
2023-09-25T14:32:45.333Z,20.87
2023-09-25T14:37:49.094Z,20.89
2023-09-25T14:42:58.270Z,20.81
2023-09-25T14:48:05.230Z,20.81
2023-09-25T14:53:09.825Z,20.84
2023-09-25T14:58:13.607Z,20.81
2023-09-25T15:03:17.879Z,20.72
2023-09-25T15:08:25.056Z,20.72
2023-09-25T15:13:29.009Z,20.68
2023-09-25T15:18:33.005Z,20.64
2023-09-25T15:23:39.483Z,20.57
2023-09-25T15:28:43.312Z,20.60
2023-09-25T15:33:47.086Z,20.62
2023-09-25T15:38:54.191Z,20.50
2023-09-25T15:43:58.064Z,20.35
2023-09-25T15:49:02.170Z,20.22
2023-09-25T15:54:06.758Z,20.13
2023-09-25T15:59:11.794Z,20.06
2023-09-25T16:04:16.134Z,19.96
2023-09-25T16:09:20.070Z,19.87
2023-09-25T16:14:24.290Z,19.77
2023-09-25T16:19:28.020Z,19.60
2023-09-25T16:24:35.651Z,19.42
2023-09-25T16:29:42.011Z,19.26
2023-09-25T16:34:46.378Z,19.09
2023-09-25T16:39:50.219Z,19.00
2023-09-25T16:44:56.352Z,18.86
2023-09-25T16:50:00.287Z,18.72
2023-09-25T16:55:07.914Z,18.58
2023-09-25T17:00:12.205Z,18.45
2023-09-25T17:05:16.309Z,18.32
2023-09-25T17:10:20.080Z,18.19
2023-09-25T17:15:25.762Z,18.11
2023-09-25T17:20:29.291Z,18.03
2023-09-25T17:25:34.034Z,17.92
2023-09-25T17:30:40.280Z,17.81
2023-09-25T17:35:44.425Z,17.71
2023-09-25T17:40:50.767Z,17.65
2023-09-25T17:45:59.080Z,17.56
2023-09-25T17:51:05.851Z,17.46
2023-09-25T17:56:15.133Z,17.38
2023-09-25T18:01:19.004Z,17.30
2023-09-25T18:06:22.938Z,17.24
2023-09-25T18:11:26.670Z,17.13
2023-09-25T18:16:33.796Z,17.05
2023-09-25T18:21:38.253Z,16.97
2023-09-25T18:26:42.239Z,16.85
2023-09-25T18:31:46.545Z,16.73
2023-09-25T18:36:52.454Z,16.65
2023-09-25T18:41:56.469Z,16.61
2023-09-25T18:47:00.553Z,16.58
2023-09-25T18:52:04.293Z,16.46
2023-09-25T18:57:08.402Z,16.25
2023-09-25T19:02:16.381Z,16.18
2023-09-25T19:07:20.818Z,16.15
2023-09-25T19:12:24.906Z,16.14
2023-09-25T19:17:28.664Z,16.03
2023-09-25T19:22:32.303Z,15.91
2023-09-25T19:27:36.368Z,15.81
2023-09-25T19:32:40.890Z,15.76
2023-09-25T19:37:44.783Z,15.73
2023-09-25T19:42:49.083Z,15.73
2023-09-25T19:47:52.966Z,15.69
2023-09-25T19:52:56.876Z,15.57
2023-09-25T19:58:04.034Z,15.43
2023-09-25T20:03:09.407Z,15.46
2023-09-25T20:08:18.733Z,15.41
2023-09-25T20:13:23.642Z,15.46
2023-09-25T20:18:29.420Z,15.46
2023-09-25T20:23:39.303Z,15.38
2023-09-25T20:28:46.554Z,15.26
2023-09-25T20:33:51.082Z,15.25
2023-09-25T20:38:56.379Z,15.18
2023-09-25T20:44:06.459Z,15.14
2023-09-25T20:49:30.398Z,15.07
2023-09-25T20:54:37.150Z,15.03
2023-09-25T20:59:41.066Z,15.00
2023-09-25T21:04:45.392Z,14.95
2023-09-25T21:09:50.103Z,14.92
2023-09-25T21:14:54.386Z,14.86
2023-09-25T21:19:58.928Z,14.74
2023-09-25T21:25:03.843Z,14.67
2023-09-25T21:30:08.639Z,14.60
2023-09-25T21:43:21.712Z,14.57
2023-09-25T21:48:29.023Z,14.53
2023-09-25T21:53:32.966Z,14.45
2023-09-25T21:58:37.411Z,14.39
2023-09-25T22:03:41.402Z,14.27
2023-09-25T22:08:45.407Z,14.20
2023-09-25T22:13:51.932Z,14.15
2023-09-25T22:18:55.613Z,14.16
2023-09-25T22:23:59.163Z,14.17
2023-09-25T22:29:02.659Z,14.14
2023-09-25T22:34:08.825Z,14.13
2023-09-25T22:39:13.846Z,14.18
2023-09-25T22:44:17.613Z,14.19
2023-09-25T22:49:21.198Z,14.14
2023-09-25T22:54:24.667Z,14.14
2023-09-25T22:59:28.200Z,14.15
2023-09-25T23:04:31.685Z,14.15
2023-09-25T23:09:35.099Z,14.14
2023-09-25T23:14:38.607Z,14.17
2023-09-25T23:19:42.160Z,14.19
2023-09-25T23:24:45.652Z,14.25
2023-09-25T23:29:49.044Z,14.37
2023-09-25T23:34:52.549Z,14.34
2023-09-25T23:39:56.092Z,14.31
2023-09-25T23:44:59.808Z,14.33
2023-09-25T23:50:06.636Z,14.41
2023-09-25T23:55:10.915Z,14.49
